Terminal Aerodrome Forecast
Issued by NWS Tulsa, OK

Home | Current Version | Previous Version | Text Only | Print | Product List | Glossary On
Versions: 1 2 3 4 5 6 7 8 9 10 11 12 13 14
000
FTUS44 KTSA 260318 AAA
TAFFSM
TAF AMD
KFSM 260318Z 2603/2624 06006KT P6SM SCT040 BKN250
     FM260500 07004KT P6SM VCTS BKN040CB
     FM260900 07003KT 5SM BR BKN200
     FM261400 08005KT P6SM SCT050 BKN100 PROB30 2618/2624 4SM TSRA
      BKN050CB=

USA.gov is the U.S. government's official web portal to all federal, state and local government web resources and services.